sensor_id;sensor_type;location;lat;lon;timestamp;P1;durP1;ratioP1;P2;durP2;ratioP2
3843;SDS011;1937;51.444;6.484;2024-01-25T00:02:05;38.73;;;6.83;;
3843;SDS011;1937;51.444;6.484;2024-01-25T00:04:32;35.20;;;7.60;;
3843;SDS011;1937;51.444;6.484;2024-01-25T00:06:58;21.80;;;6.80;;
3843;SDS011;1937;51.444;6.484;2024-01-25T00:09:26;27.27;;;7.37;;
3843;SDS011;1937;51.444;6.484;2024-01-25T00:11:53;20.47;;;8.07;;
3843;SDS011;1937;51.444;6.484;2024-01-25T00:14:19;32.07;;;7.97;;
3843;SDS011;1937;51.444;6.484;2024-01-25T00:16:46;27.73;;;7.40;;
3843;SDS011;1937;51.444;6.484;2024-01-25T00:19:13;27.27;;;8.43;;
3843;SDS011;1937;51.444;6.484;2024-01-25T00:21:41;21.33;;;6.63;;
3843;SDS011;1937;51.444;6.484;2024-01-25T00:24:08;25.90;;;8.10;;
3843;SDS011;1937;51.444;6.484;2024-01-25T00:26:38;22.17;;;5.53;;
3843;SDS011;1937;51.444;6.484;2024-01-25T00:29:05;37.33;;;8.13;;
3843;SDS011;1937;51.444;6.484;2024-01-25T00:31:31;21.43;;;6.17;;
3843;SDS011;1937;51.444;6.484;2024-01-25T00:33:58;24.00;;;5.90;;
3843;SDS011;1937;51.444;6.484;2024-01-25T00:36:26;33.67;;;7.20;;
3843;SDS011;1937;51.444;6.484;2024-01-25T00:38:53;28.13;;;6.50;;
3843;SDS011;1937;51.444;6.484;2024-01-25T00:41:20;21.53;;;7.23;;
3843;SDS011;1937;51.444;6.484;2024-01-25T00:43:50;28.17;;;7.23;;
3843;SDS011;1937;51.444;6.484;2024-01-25T00:46:17;29.77;;;7.80;;
3843;SDS011;1937;51.444;6.484;2024-01-25T00:48:44;26.53;;;6.90;;
3843;SDS011;1937;51.444;6.484;2024-01-25T00:51:13;28.53;;;8.33;;
3843;SDS011;1937;51.444;6.484;2024-01-25T00:53:42;32.43;;;7.20;;
3843;SDS011;1937;51.444;6.484;2024-01-25T00:56:10;30.77;;;7.20;;
3843;SDS011;1937;51.444;6.484;2024-01-25T00:58:37;27.53;;;5.90;;
3843;SDS011;1937;51.444;6.484;2024-01-25T01:01:06;32.63;;;6.37;;
3843;SDS011;1937;51.444;6.484;2024-01-25T01:03:35;24.40;;;7.07;;
3843;SDS011;1937;51.444;6.484;2024-01-25T01:06:02;36.87;;;10.50;;
3843;SDS011;1937;51.444;6.484;2024-01-25T01:08:29;33.43;;;9.23;;
3843;SDS011;1937;51.444;6.484;2024-01-25T01:10:57;31.33;;;6.33;;
3843;SDS011;1937;51.444;6.484;2024-01-25T01:13:23;26.27;;;7.47;;
3843;SDS011;1937;51.444;6.484;2024-01-25T01:15:50;26.07;;;6.93;;
3843;SDS011;1937;51.444;6.484;2024-01-25T01:18:18;26.67;;;7.20;;
3843;SDS011;1937;51.444;6.484;2024-01-25T01:20:45;16.40;;;5.60;;
3843;SDS011;1937;51.444;6.484;2024-01-25T01:23:12;31.80;;;6.17;;
3843;SDS011;1937;51.444;6.484;2024-01-25T01:25:40;30.83;;;6.80;;
3843;SDS011;1937;51.444;6.484;2024-01-25T01:28:06;31.57;;;7.20;;
3843;SDS011;1937;51.444;6.484;2024-01-25T01:30:33;31.10;;;6.90;;
3843;SDS011;1937;51.444;6.484;2024-01-25T01:33:00;29.47;;;7.00;;
3843;SDS011;1937;51.444;6.484;2024-01-25T01:35:28;27.83;;;7.57;;
3843;SDS011;1937;51.444;6.484;2024-01-25T01:37:54;27.93;;;6.00;;
3843;SDS011;1937;51.444;6.484;2024-01-25T01:40:21;25.33;;;6.50;;
3843;SDS011;1937;51.444;6.484;2024-01-25T01:42:48;29.10;;;6.37;;
3843;SDS011;1937;51.444;6.484;2024-01-25T01:45:14;21.70;;;6.23;;
3843;SDS011;1937;51.444;6.484;2024-01-25T01:47:41;31.10;;;7.47;;
3843;SDS011;1937;51.444;6.484;2024-01-25T01:50:08;38.50;;;7.30;;
3843;SDS011;1937;51.444;6.484;2024-01-25T01:52:37;21.87;;;6.57;;
3843;SDS011;1937;51.444;6.484;2024-01-25T01:55:04;26.53;;;6.33;;
3843;SDS011;1937;51.444;6.484;2024-01-25T01:57:33;21.93;;;6.23;;
3843;SDS011;1937;51.444;6.484;2024-01-25T02:00:00;31.87;;;6.13;;
3843;SDS011;1937;51.444;6.484;2024-01-25T02:02:30;26.43;;;6.40;;
3843;SDS011;1937;51.444;6.484;2024-01-25T02:04:57;23.10;;;5.23;;
3843;SDS011;1937;51.444;6.484;2024-01-25T02:07:23;27.07;;;7.27;;
3843;SDS011;1937;51.444;6.484;2024-01-25T02:09:51;25.53;;;5.77;;
3843;SDS011;1937;51.444;6.484;2024-01-25T02:12:18;40.47;;;7.33;;
3843;SDS011;1937;51.444;6.484;2024-01-25T02:14:45;29.73;;;6.80;;
3843;SDS011;1937;51.444;6.484;2024-01-25T02:17:11;39.93;;;6.53;;
3843;SDS011;1937;51.444;6.484;2024-01-25T02:19:38;29.80;;;8.90;;
3843;SDS011;1937;51.444;6.484;2024-01-25T02:22:08;27.00;;;7.10;;
3843;SDS011;1937;51.444;6.484;2024-01-25T02:24:36;22.50;;;6.43;;
3843;SDS011;1937;51.444;6.484;2024-01-25T02:27:03;37.27;;;6.73;;
3843;SDS011;1937;51.444;6.484;2024-01-25T02:29:30;23.40;;;6.20;;
3843;SDS011;1937;51.444;6.484;2024-01-25T02:31:57;35.27;;;5.80;;
3843;SDS011;1937;51.444;6.484;2024-01-25T02:34:23;18.13;;;6.50;;
3843;SDS011;1937;51.444;6.484;2024-01-25T02:36:50;28.10;;;6.10;;
3843;SDS011;1937;51.444;6.484;2024-01-25T02:39:17;31.47;;;6.90;;
3843;SDS011;1937;51.444;6.484;2024-01-25T02:41:45;23.50;;;5.43;;
3843;SDS011;1937;51.444;6.484;2024-01-25T02:44:12;21.70;;;5.57;;
3843;SDS011;1937;51.444;6.484;2024-01-25T02:46:39;32.53;;;6.40;;
3843;SDS011;1937;51.444;6.484;2024-01-25T02:49:06;24.87;;;7.87;;
3843;SDS011;1937;51.444;6.484;2024-01-25T02:51:33;44.53;;;8.67;;
3843;SDS011;1937;51.444;6.484;2024-01-25T02:53:59;22.70;;;5.30;;
3843;SDS011;1937;51.444;6.484;2024-01-25T02:56:26;27.73;;;6.70;;
3843;SDS011;1937;51.444;6.484;2024-01-25T02:58:59;33.67;;;6.47;;
3843;SDS011;1937;51.444;6.484;2024-01-25T03:01:26;36.93;;;8.87;;
3843;SDS011;1937;51.444;6.484;2024-01-25T03:03:53;31.80;;;7.20;;
3843;SDS011;1937;51.444;6.484;2024-01-25T03:06:20;30.33;;;6.00;;
3843;SDS011;1937;51.444;6.484;2024-01-25T03:08:47;31.10;;;7.67;;
3843;SDS011;1937;51.444;6.484;2024-01-25T03:11:14;30.73;;;7.23;;
3843;SDS011;1937;51.444;6.484;2024-01-25T03:13:41;40.67;;;6.87;;
3843;SDS011;1937;51.444;6.484;2024-01-25T03:16:09;19.50;;;6.50;;
3843;SDS011;1937;51.444;6.484;2024-01-25T03:18:36;22.80;;;6.40;;
3843;SDS011;1937;51.444;6.484;2024-01-25T03:21:02;28.13;;;7.43;;
3843;SDS011;1937;51.444;6.484;2024-01-25T03:23:29;31.80;;;6.20;;
3843;SDS011;1937;51.444;6.484;2024-01-25T03:25:56;25.43;;;6.70;;
3843;SDS011;1937;51.444;6.484;2024-01-25T03:28:23;21.43;;;6.20;;
3843;SDS011;1937;51.444;6.484;2024-01-25T03:30:49;28.23;;;6.20;;
3843;SDS011;1937;51.444;6.484;2024-01-25T03:33:17;24.43;;;6.33;;
3843;SDS011;1937;51.444;6.484;2024-01-25T03:35:44;24.67;;;5.90;;
3843;SDS011;1937;51.444;6.484;2024-01-25T03:38:11;32.73;;;8.63;;
3843;SDS011;1937;51.444;6.484;2024-01-25T03:40:39;19.53;;;5.80;;
3843;SDS011;1937;51.444;6.484;2024-01-25T03:43:05;40.33;;;8.50;;
3843;SDS011;1937;51.444;6.484;2024-01-25T03:45:32;20.83;;;5.53;;
3843;SDS011;1937;51.444;6.484;2024-01-25T03:47:59;25.67;;;7.50;;
3843;SDS011;1937;51.444;6.484;2024-01-25T03:50:27;37.07;;;6.00;;
3843;SDS011;1937;51.444;6.484;2024-01-25T03:52:54;29.67;;;6.10;;
3843;SDS011;1937;51.444;6.484;2024-01-25T03:55:21;37.03;;;7.17;;
3843;SDS011;1937;51.444;6.484;2024-01-25T03:57:47;44.93;;;7.57;;
3843;SDS011;1937;51.444;6.484;2024-01-25T04:00:14;27.63;;;5.17;;
3843;SDS011;1937;51.444;6.484;2024-01-25T04:02:41;18.20;;;7.47;;
3843;SDS011;1937;51.444;6.484;2024-01-25T04:05:08;32.10;;;6.87;;
3843;SDS011;1937;51.444;6.484;2024-01-25T04:07:36;31.57;;;8.07;;
3843;SDS011;1937;51.444;6.484;2024-01-25T04:10:03;35.57;;;6.97;;
3843;SDS011;1937;51.444;6.484;2024-01-25T04:12:30;30.93;;;8.80;;
3843;SDS011;1937;51.444;6.484;2024-01-25T04:14:58;32.10;;;6.67;;
3843;SDS011;1937;51.444;6.484;2024-01-25T04:17:25;36.07;;;6.90;;
3843;SDS011;1937;51.444;6.484;2024-01-25T04:19:52;27.90;;;6.30;;
3843;SDS011;1937;51.444;6.484;2024-01-25T04:22:18;17.63;;;6.90;;
3843;SDS011;1937;51.444;6.484;2024-01-25T04:24:46;32.90;;;7.23;;
3843;SDS011;1937;51.444;6.484;2024-01-25T04:27:14;23.63;;;6.67;;
3843;SDS011;1937;51.444;6.484;2024-01-25T04:29:41;28.00;;;6.60;;
3843;SDS011;1937;51.444;6.484;2024-01-25T04:32:09;21.83;;;7.50;;
3843;SDS011;1937;51.444;6.484;2024-01-25T04:34:36;26.77;;;6.17;;
3843;SDS011;1937;51.444;6.484;2024-01-25T04:37:03;31.67;;;6.63;;
3843;SDS011;1937;51.444;6.484;2024-01-25T04:39:30;32.97;;;7.30;;
3843;SDS011;1937;51.444;6.484;2024-01-25T04:41:58;36.33;;;7.00;;
3843;SDS011;1937;51.444;6.484;2024-01-25T04:44:25;31.53;;;7.00;;
3843;SDS011;1937;51.444;6.484;2024-01-25T04:46:52;33.50;;;6.97;;
3843;SDS011;1937;51.444;6.484;2024-01-25T04:49:19;47.90;;;6.73;;
3843;SDS011;1937;51.444;6.484;2024-01-25T04:51:46;20.43;;;6.50;;
3843;SDS011;1937;51.444;6.484;2024-01-25T04:54:12;23.70;;;6.40;;
3843;SDS011;1937;51.444;6.484;2024-01-25T04:56:40;26.63;;;6.27;;
3843;SDS011;1937;51.444;6.484;2024-01-25T04:59:08;35.07;;;7.50;;
3843;SDS011;1937;51.444;6.484;2024-01-25T05:01:35;25.33;;;7.30;;
3843;SDS011;1937;51.444;6.484;2024-01-25T05:04:01;21.50;;;6.47;;
3843;SDS011;1937;51.444;6.484;2024-01-25T05:06:28;32.23;;;6.60;;
3843;SDS011;1937;51.444;6.484;2024-01-25T05:08:55;26.30;;;7.10;;
3843;SDS011;1937;51.444;6.484;2024-01-25T05:11:22;30.00;;;7.43;;
3843;SDS011;1937;51.444;6.484;2024-01-25T05:13:49;43.97;;;7.47;;
3843;SDS011;1937;51.444;6.484;2024-01-25T05:16:17;26.90;;;5.90;;
3843;SDS011;1937;51.444;6.484;2024-01-25T05:18:44;18.43;;;6.57;;
3843;SDS011;1937;51.444;6.484;2024-01-25T05:21:10;35.17;;;6.57;;
3843;SDS011;1937;51.444;6.484;2024-01-25T05:23:37;11.87;;;5.90;;
3843;SDS011;1937;51.444;6.484;2024-01-25T05:26:05;30.60;;;6.80;;
3843;SDS011;1937;51.444;6.484;2024-01-25T05:28:32;32.53;;;6.10;;
3843;SDS011;1937;51.444;6.484;2024-01-25T05:30:58;32.90;;;7.30;;
3843;SDS011;1937;51.444;6.484;2024-01-25T05:33:26;30.33;;;6.63;;
3843;SDS011;1937;51.444;6.484;2024-01-25T05:35:53;32.10;;;7.57;;
3843;SDS011;1937;51.444;6.484;2024-01-25T05:38:20;19.40;;;8.07;;
3843;SDS011;1937;51.444;6.484;2024-01-25T05:40:47;31.17;;;6.87;;
3843;SDS011;1937;51.444;6.484;2024-01-25T05:43:13;31.90;;;9.70;;
3843;SDS011;1937;51.444;6.484;2024-01-25T05:45:40;38.27;;;7.13;;
3843;SDS011;1937;51.444;6.484;2024-01-25T05:48:07;22.67;;;5.90;;
3843;SDS011;1937;51.444;6.484;2024-01-25T05:50:35;31.30;;;8.53;;
3843;SDS011;1937;51.444;6.484;2024-01-25T05:53:02;18.27;;;6.30;;
3843;SDS011;1937;51.444;6.484;2024-01-25T05:55:28;35.47;;;8.50;;
3843;SDS011;1937;51.444;6.484;2024-01-25T05:57:55;22.67;;;7.23;;
3843;SDS011;1937;51.444;6.484;2024-01-25T06:00:22;29.23;;;8.10;;
3843;SDS011;1937;51.444;6.484;2024-01-25T06:02:48;36.17;;;7.90;;
3843;SDS011;1937;51.444;6.484;2024-01-25T06:05:15;22.57;;;6.63;;
3843;SDS011;1937;51.444;6.484;2024-01-25T06:07:43;33.63;;;7.30;;
3843;SDS011;1937;51.444;6.484;2024-01-25T06:10:10;22.57;;;5.90;;
3843;SDS011;1937;51.444;6.484;2024-01-25T06:12:37;40.97;;;8.73;;
3843;SDS011;1937;51.444;6.484;2024-01-25T06:15:05;27.60;;;7.70;;
3843;SDS011;1937;51.444;6.484;2024-01-25T06:17:33;27.43;;;7.63;;
3843;SDS011;1937;51.444;6.484;2024-01-25T06:20:00;34.33;;;8.07;;
3843;SDS011;1937;51.444;6.484;2024-01-25T06:22:27;31.60;;;7.63;;
3843;SDS011;1937;51.444;6.484;2024-01-25T06:24:55;38.77;;;9.27;;
3843;SDS011;1937;51.444;6.484;2024-01-25T06:27:22;26.37;;;6.53;;
3843;SDS011;1937;51.444;6.484;2024-01-25T06:29:48;38.33;;;7.60;;
3843;SDS011;1937;51.444;6.484;2024-01-25T06:32:15;31.67;;;7.07;;
3843;SDS011;1937;51.444;6.484;2024-01-25T06:34:42;30.73;;;7.40;;
3843;SDS011;1937;51.444;6.484;2024-01-25T06:37:09;27.93;;;6.77;;
3843;SDS011;1937;51.444;6.484;2024-01-25T06:39:37;42.47;;;7.80;;
3843;SDS011;1937;51.444;6.484;2024-01-25T06:42:05;32.00;;;6.23;;
3843;SDS011;1937;51.444;6.484;2024-01-25T06:44:32;28.20;;;8.10;;
3843;SDS011;1937;51.444;6.484;2024-01-25T06:46:58;36.43;;;10.10;;
3843;SDS011;1937;51.444;6.484;2024-01-25T06:49:25;22.53;;;7.97;;
3843;SDS011;1937;51.444;6.484;2024-01-25T06:51:52;20.87;;;6.57;;
3843;SDS011;1937;51.444;6.484;2024-01-25T06:54:18;18.20;;;6.57;;
3843;SDS011;1937;51.444;6.484;2024-01-25T06:56:45;21.80;;;7.40;;
3843;SDS011;1937;51.444;6.484;2024-01-25T06:59:13;32.67;;;7.37;;
3843;SDS011;1937;51.444;6.484;2024-01-25T07:01:39;40.60;;;9.20;;
3843;SDS011;1937;51.444;6.484;2024-01-25T07:04:05;37.77;;;8.93;;
3843;SDS011;1937;51.444;6.484;2024-01-25T07:06:32;24.47;;;7.77;;
3843;SDS011;1937;51.444;6.484;2024-01-25T07:08:59;36.87;;;8.73;;
3843;SDS011;1937;51.444;6.484;2024-01-25T07:11:25;36.90;;;8.60;;
3843;SDS011;1937;51.444;6.484;2024-01-25T07:13:52;21.30;;;6.17;;
3843;SDS011;1937;51.444;6.484;2024-01-25T07:16:20;31.17;;;8.63;;
3843;SDS011;1937;51.444;6.484;2024-01-25T07:18:49;31.37;;;8.10;;
3843;SDS011;1937;51.444;6.484;2024-01-25T07:21:15;32.63;;;6.93;;
3843;SDS011;1937;51.444;6.484;2024-01-25T07:23:42;37.43;;;8.10;;
3843;SDS011;1937;51.444;6.484;2024-01-25T07:26:09;27.83;;;7.37;;
3843;SDS011;1937;51.444;6.484;2024-01-25T07:28:43;28.27;;;7.37;;
3843;SDS011;1937;51.444;6.484;2024-01-25T07:31:09;44.30;;;7.50;;
3843;SDS011;1937;51.444;6.484;2024-01-25T07:33:37;26.97;;;6.37;;
3843;SDS011;1937;51.444;6.484;2024-01-25T07:36:05;19.73;;;6.57;;
3843;SDS011;1937;51.444;6.484;2024-01-25T07:38:32;34.87;;;7.70;;
3843;SDS011;1937;51.444;6.484;2024-01-25T07:40:58;19.20;;;6.57;;
3843;SDS011;1937;51.444;6.484;2024-01-25T07:43:25;29.70;;;8.57;;
3843;SDS011;1937;51.444;6.484;2024-01-25T07:45:52;25.37;;;6.00;;
3843;SDS011;1937;51.444;6.484;2024-01-25T07:48:18;31.27;;;8.07;;
3843;SDS011;1937;51.444;6.484;2024-01-25T07:50:47;37.80;;;8.53;;
3843;SDS011;1937;51.444;6.484;2024-01-25T07:53:15;32.40;;;7.93;;
3843;SDS011;1937;51.444;6.484;2024-01-25T07:55:44;40.40;;;8.13;;
3843;SDS011;1937;51.444;6.484;2024-01-25T07:58:11;34.97;;;8.90;;
3843;SDS011;1937;51.444;6.484;2024-01-25T08:00:38;34.37;;;9.77;;
3843;SDS011;1937;51.444;6.484;2024-01-25T08:03:05;29.53;;;8.13;;
3843;SDS011;1937;51.444;6.484;2024-01-25T08:05:31;30.57;;;8.63;;
3843;SDS011;1937;51.444;6.484;2024-01-25T08:07:59;37.53;;;8.50;;
3843;SDS011;1937;51.444;6.484;2024-01-25T08:10:26;24.13;;;7.90;;
3843;SDS011;1937;51.444;6.484;2024-01-25T08:12:53;43.23;;;10.53;;
3843;SDS011;1937;51.444;6.484;2024-01-25T08:15:20;42.20;;;9.33;;
3843;SDS011;1937;51.444;6.484;2024-01-25T08:17:49;42.17;;;9.50;;
3843;SDS011;1937;51.444;6.484;2024-01-25T08:20:16;36.57;;;8.77;;
3843;SDS011;1937;51.444;6.484;2024-01-25T08:22:43;33.10;;;8.67;;
3843;SDS011;1937;51.444;6.484;2024-01-25T08:25:11;31.57;;;9.40;;
3843;SDS011;1937;51.444;6.484;2024-01-25T08:27:38;39.23;;;8.60;;
3843;SDS011;1937;51.444;6.484;2024-01-25T08:30:06;27.97;;;8.53;;
3843;SDS011;1937;51.444;6.484;2024-01-25T08:32:33;31.40;;;10.47;;
3843;SDS011;1937;51.444;6.484;2024-01-25T08:35:00;58.60;;;12.53;;
3843;SDS011;1937;51.444;6.484;2024-01-25T08:37:27;49.37;;;10.20;;
3843;SDS011;1937;51.444;6.484;2024-01-25T08:39:54;34.73;;;9.90;;
3843;SDS011;1937;51.444;6.484;2024-01-25T08:42:22;34.37;;;9.73;;
3843;SDS011;1937;51.444;6.484;2024-01-25T08:44:49;40.27;;;11.00;;
3843;SDS011;1937;51.444;6.484;2024-01-25T08:47:16;53.77;;;11.47;;
3843;SDS011;1937;51.444;6.484;2024-01-25T08:49:44;28.77;;;10.80;;
3843;SDS011;1937;51.444;6.484;2024-01-25T08:52:10;46.93;;;11.63;;
3843;SDS011;1937;51.444;6.484;2024-01-25T08:54:37;38.30;;;13.03;;
3843;SDS011;1937;51.444;6.484;2024-01-25T08:57:04;41.03;;;12.27;;
3843;SDS011;1937;51.444;6.484;2024-01-25T08:59:33;38.13;;;10.80;;
3843;SDS011;1937;51.444;6.484;2024-01-25T09:02:02;33.67;;;12.27;;
3843;SDS011;1937;51.444;6.484;2024-01-25T09:04:29;54.37;;;12.20;;
3843;SDS011;1937;51.444;6.484;2024-01-25T09:06:57;46.77;;;13.90;;
3843;SDS011;1937;51.444;6.484;2024-01-25T09:09:24;36.77;;;13.93;;
3843;SDS011;1937;51.444;6.484;2024-01-25T09:11:51;53.47;;;14.70;;
3843;SDS011;1937;51.444;6.484;2024-01-25T09:14:18;51.87;;;15.20;;
3843;SDS011;1937;51.444;6.484;2024-01-25T09:16:47;55.80;;;14.33;;
3843;SDS011;1937;51.444;6.484;2024-01-25T09:19:13;42.73;;;15.47;;
3843;SDS011;1937;51.444;6.484;2024-01-25T09:21:40;69.23;;;16.23;;
3843;SDS011;1937;51.444;6.484;2024-01-25T09:24:07;44.53;;;15.10;;
3843;SDS011;1937;51.444;6.484;2024-01-25T09:26:34;59.40;;;16.27;;
3843;SDS011;1937;51.444;6.484;2024-01-25T09:29:03;61.13;;;15.90;;
3843;SDS011;1937;51.444;6.484;2024-01-25T09:31:30;49.40;;;15.93;;
3843;SDS011;1937;51.444;6.484;2024-01-25T09:33:59;52.20;;;15.00;;
3843;SDS011;1937;51.444;6.484;2024-01-25T09:36:25;53.23;;;14.93;;
3843;SDS011;1937;51.444;6.484;2024-01-25T09:38:52;42.87;;;16.60;;
3843;SDS011;1937;51.444;6.484;2024-01-25T09:41:19;51.47;;;16.40;;
3843;SDS011;1937;51.444;6.484;2024-01-25T09:43:45;49.63;;;14.70;;
3843;SDS011;1937;51.444;6.484;2024-01-25T09:46:13;50.40;;;15.80;;
3843;SDS011;1937;51.444;6.484;2024-01-25T09:48:41;39.53;;;14.60;;
3843;SDS011;1937;51.444;6.484;2024-01-25T09:51:12;37.13;;;14.00;;
3843;SDS011;1937;51.444;6.484;2024-01-25T09:53:39;49.53;;;15.20;;
3843;SDS011;1937;51.444;6.484;2024-01-25T09:56:07;42.00;;;17.30;;
3843;SDS011;1937;51.444;6.484;2024-01-25T09:58:37;46.50;;;15.93;;
3843;SDS011;1937;51.444;6.484;2024-01-25T10:01:07;49.83;;;15.83;;
3843;SDS011;1937;51.444;6.484;2024-01-25T10:03:35;41.27;;;16.77;;
3843;SDS011;1937;51.444;6.484;2024-01-25T10:06:02;48.10;;;16.47;;
3843;SDS011;1937;51.444;6.484;2024-01-25T10:08:30;58.70;;;16.57;;
3843;SDS011;1937;51.444;6.484;2024-01-25T10:11:00;40.83;;;15.90;;
3843;SDS011;1937;51.444;6.484;2024-01-25T10:13:27;41.40;;;15.07;;
3843;SDS011;1937;51.444;6.484;2024-01-25T10:15:55;49.93;;;17.00;;
3843;SDS011;1937;51.444;6.484;2024-01-25T10:18:22;45.47;;;14.77;;
3843;SDS011;1937;51.444;6.484;2024-01-25T10:20:49;55.17;;;16.63;;
3843;SDS011;1937;51.444;6.484;2024-01-25T10:23:16;44.13;;;17.63;;
3843;SDS011;1937;51.444;6.484;2024-01-25T10:25:44;45.53;;;15.13;;
3843;SDS011;1937;51.444;6.484;2024-01-25T10:28:11;45.37;;;16.10;;
3843;SDS011;1937;51.444;6.484;2024-01-25T10:30:38;43.40;;;17.43;;
3843;SDS011;1937;51.444;6.484;2024-01-25T10:33:05;52.37;;;16.10;;
3843;SDS011;1937;51.444;6.484;2024-01-25T10:35:32;50.30;;;17.23;;
3843;SDS011;1937;51.444;6.484;2024-01-25T10:38:00;53.17;;;15.40;;
3843;SDS011;1937;51.444;6.484;2024-01-25T10:40:28;50.33;;;16.70;;
3843;SDS011;1937;51.444;6.484;2024-01-25T10:42:56;47.93;;;16.47;;
3843;SDS011;1937;51.444;6.484;2024-01-25T10:45:34;46.20;;;14.90;;
3843;SDS011;1937;51.444;6.484;2024-01-25T10:48:01;39.77;;;15.10;;
3843;SDS011;1937;51.444;6.484;2024-01-25T10:50:30;45.33;;;16.10;;
3843;SDS011;1937;51.444;6.484;2024-01-25T10:52:57;47.63;;;16.43;;
3843;SDS011;1937;51.444;6.484;2024-01-25T10:55:25;45.23;;;17.20;;
3843;SDS011;1937;51.444;6.484;2024-01-25T10:57:53;40.83;;;16.33;;
3843;SDS011;1937;51.444;6.484;2024-01-25T11:00:22;42.67;;;17.03;;
3843;SDS011;1937;51.444;6.484;2024-01-25T11:02:50;48.73;;;16.10;;
3843;SDS011;1937;51.444;6.484;2024-01-25T11:05:41;54.07;;;15.90;;
3843;SDS011;1937;51.444;6.484;2024-01-25T11:08:16;53.63;;;17.50;;
3843;SDS011;1937;51.444;6.484;2024-01-25T11:10:46;57.63;;;17.70;;
3843;SDS011;1937;51.444;6.484;2024-01-25T11:13:16;32.40;;;15.87;;
3843;SDS011;1937;51.444;6.484;2024-01-25T11:15:51;48.50;;;18.30;;
3843;SDS011;1937;51.444;6.484;2024-01-25T11:18:24;55.67;;;18.50;;
3843;SDS011;1937;51.444;6.484;2024-01-25T11:20:52;46.53;;;16.60;;
3843;SDS011;1937;51.444;6.484;2024-01-25T11:23:19;45.00;;;17.63;;
3843;SDS011;1937;51.444;6.484;2024-01-25T11:25:46;48.27;;;17.93;;
3843;SDS011;1937;51.444;6.484;2024-01-25T11:28:14;56.57;;;19.10;;
3843;SDS011;1937;51.444;6.484;2024-01-25T11:30:42;59.40;;;19.73;;
3843;SDS011;1937;51.444;6.484;2024-01-25T11:33:10;44.20;;;17.07;;
3843;SDS011;1937;51.444;6.484;2024-01-25T11:35:39;66.13;;;20.20;;
3843;SDS011;1937;51.444;6.484;2024-01-25T11:38:08;48.47;;;18.20;;
3843;SDS011;1937;51.444;6.484;2024-01-25T11:40:35;51.60;;;19.87;;
3843;SDS011;1937;51.444;6.484;2024-01-25T11:43:02;71.00;;;21.10;;
3843;SDS011;1937;51.444;6.484;2024-01-25T11:45:35;65.03;;;21.20;;
3843;SDS011;1937;51.444;6.484;2024-01-25T11:48:19;41.93;;;18.80;;
3843;SDS011;1937;51.444;6.484;2024-01-25T11:50:48;60.63;;;21.83;;
3843;SDS011;1937;51.444;6.484;2024-01-25T11:53:17;59.37;;;20.43;;
3843;SDS011;1937;51.444;6.484;2024-01-25T11:55:44;57.20;;;20.00;;
3843;SDS011;1937;51.444;6.484;2024-01-25T11:58:12;56.90;;;19.47;;
3843;SDS011;1937;51.444;6.484;2024-01-25T12:00:39;72.63;;;22.10;;
3843;SDS011;1937;51.444;6.484;2024-01-25T12:03:06;52.23;;;20.57;;
3843;SDS011;1937;51.444;6.484;2024-01-25T12:05:34;50.53;;;19.20;;
3843;SDS011;1937;51.444;6.484;2024-01-25T12:08:01;51.33;;;18.23;;
3843;SDS011;1937;51.444;6.484;2024-01-25T12:10:28;52.23;;;17.97;;
3843;SDS011;1937;51.444;6.484;2024-01-25T12:12:55;40.53;;;18.83;;
3843;SDS011;1937;51.444;6.484;2024-01-25T12:15:22;52.97;;;16.70;;
3843;SDS011;1937;51.444;6.484;2024-01-25T12:17:49;51.40;;;17.20;;
3843;SDS011;1937;51.444;6.484;2024-01-25T12:20:16;54.90;;;16.43;;
3843;SDS011;1937;51.444;6.484;2024-01-25T12:22:45;41.73;;;15.70;;
3843;SDS011;1937;51.444;6.484;2024-01-25T12:25:14;41.30;;;16.50;;
3843;SDS011;1937;51.444;6.484;2024-01-25T12:27:41;55.27;;;17.23;;
3843;SDS011;1937;51.444;6.484;2024-01-25T12:30:10;43.87;;;15.30;;
3843;SDS011;1937;51.444;6.484;2024-01-25T12:32:41;43.50;;;14.03;;
3843;SDS011;1937;51.444;6.484;2024-01-25T12:35:08;39.47;;;15.27;;
3843;SDS011;1937;51.444;6.484;2024-01-25T12:37:35;49.63;;;14.87;;
3843;SDS011;1937;51.444;6.484;2024-01-25T12:40:04;38.00;;;16.30;;
3843;SDS011;1937;51.444;6.484;2024-01-25T12:42:32;36.47;;;14.43;;
3843;SDS011;1937;51.444;6.484;2024-01-25T12:44:59;34.80;;;13.93;;
3843;SDS011;1937;51.444;6.484;2024-01-25T12:47:25;40.23;;;13.67;;
3843;SDS011;1937;51.444;6.484;2024-01-25T12:49:52;31.93;;;13.87;;
3843;SDS011;1937;51.444;6.484;2024-01-25T12:52:19;54.17;;;14.60;;
3843;SDS011;1937;51.444;6.484;2024-01-25T12:54:46;46.57;;;14.17;;
3843;SDS011;1937;51.444;6.484;2024-01-25T12:57:14;44.40;;;14.20;;
3843;SDS011;1937;51.444;6.484;2024-01-25T12:59:41;36.93;;;13.30;;
3843;SDS011;1937;51.444;6.484;2024-01-25T13:02:19;49.47;;;14.30;;
3843;SDS011;1937;51.444;6.484;2024-01-25T13:05:03;42.20;;;15.27;;
3843;SDS011;1937;51.444;6.484;2024-01-25T13:07:33;48.63;;;16.73;;
3843;SDS011;1937;51.444;6.484;2024-01-25T13:10:01;56.77;;;16.87;;
3843;SDS011;1937;51.444;6.484;2024-01-25T13:12:35;46.03;;;15.83;;
3843;SDS011;1937;51.444;6.484;2024-01-25T13:15:03;44.30;;;16.20;;
3843;SDS011;1937;51.444;6.484;2024-01-25T13:17:31;42.70;;;13.73;;
3843;SDS011;1937;51.444;6.484;2024-01-25T13:19:58;36.60;;;14.83;;
3843;SDS011;1937;51.444;6.484;2024-01-25T13:22:27;40.07;;;15.10;;
3843;SDS011;1937;51.444;6.484;2024-01-25T13:25:13;42.23;;;16.37;;
3843;SDS011;1937;51.444;6.484;2024-01-25T13:27:43;37.60;;;15.63;;
3843;SDS011;1937;51.444;6.484;2024-01-25T13:30:24;58.27;;;17.77;;
3843;SDS011;1937;51.444;6.484;2024-01-25T13:32:50;49.50;;;16.80;;
3843;SDS011;1937;51.444;6.484;2024-01-25T13:35:17;46.93;;;15.60;;
3843;SDS011;1937;51.444;6.484;2024-01-25T13:37:44;49.70;;;18.23;;
3843;SDS011;1937;51.444;6.484;2024-01-25T13:40:11;53.67;;;15.93;;
3843;SDS011;1937;51.444;6.484;2024-01-25T13:42:37;41.07;;;15.50;;
3843;SDS011;1937;51.444;6.484;2024-01-25T13:45:06;50.33;;;16.77;;
3843;SDS011;1937;51.444;6.484;2024-01-25T13:47:33;43.80;;;15.33;;
3843;SDS011;1937;51.444;6.484;2024-01-25T13:50:00;52.43;;;17.13;;
3843;SDS011;1937;51.444;6.484;2024-01-25T13:52:27;50.67;;;18.90;;
3843;SDS011;1937;51.444;6.484;2024-01-25T13:54:53;51.47;;;17.93;;
3843;SDS011;1937;51.444;6.484;2024-01-25T13:57:20;45.50;;;16.30;;
3843;SDS011;1937;51.444;6.484;2024-01-25T13:59:48;52.07;;;16.50;;
3843;SDS011;1937;51.444;6.484;2024-01-25T14:02:16;41.90;;;16.30;;
3843;SDS011;1937;51.444;6.484;2024-01-25T14:04:43;49.93;;;15.13;;
3843;SDS011;1937;51.444;6.484;2024-01-25T14:07:10;59.10;;;17.90;;
3843;SDS011;1937;51.444;6.484;2024-01-25T14:09:36;49.70;;;17.33;;
3843;SDS011;1937;51.444;6.484;2024-01-25T14:12:03;48.27;;;16.30;;
3843;SDS011;1937;51.444;6.484;2024-01-25T14:14:31;42.23;;;17.47;;
3843;SDS011;1937;51.444;6.484;2024-01-25T14:16:57;40.63;;;15.40;;
3843;SDS011;1937;51.444;6.484;2024-01-25T14:19:25;60.53;;;16.30;;
3843;SDS011;1937;51.444;6.484;2024-01-25T14:21:52;44.07;;;15.33;;
3843;SDS011;1937;51.444;6.484;2024-01-25T14:24:18;45.90;;;14.37;;
3843;SDS011;1937;51.444;6.484;2024-01-25T14:26:45;51.97;;;13.87;;
3843;SDS011;1937;51.444;6.484;2024-01-25T14:29:12;48.43;;;15.10;;
3843;SDS011;1937;51.444;6.484;2024-01-25T14:31:38;35.80;;;13.63;;
3843;SDS011;1937;51.444;6.484;2024-01-25T14:34:06;48.33;;;13.53;;
3843;SDS011;1937;51.444;6.484;2024-01-25T14:36:34;28.73;;;11.90;;
3843;SDS011;1937;51.444;6.484;2024-01-25T14:39:01;40.37;;;12.50;;
3843;SDS011;1937;51.444;6.484;2024-01-25T14:41:28;43.93;;;13.93;;
3843;SDS011;1937;51.444;6.484;2024-01-25T14:43:55;31.90;;;13.00;;
3843;SDS011;1937;51.444;6.484;2024-01-25T14:46:22;35.67;;;15.33;;
3843;SDS011;1937;51.444;6.484;2024-01-25T14:48:48;59.27;;;16.30;;
3843;SDS011;1937;51.444;6.484;2024-01-25T14:51:15;42.60;;;14.40;;
3843;SDS011;1937;51.444;6.484;2024-01-25T14:53:43;44.23;;;14.60;;
3843;SDS011;1937;51.444;6.484;2024-01-25T14:56:10;36.73;;;13.03;;
3843;SDS011;1937;51.444;6.484;2024-01-25T14:58:37;48.60;;;14.50;;